Monday, August 21, 2017, 8:05 AM EDT
Back to Local

KMPO, Mt Pocono Pocono Mountains

Location: Pocono Summit, PA, United States Lat: 41.133
Local Time: 8:05 AM EDT (12:05 GMT) Lon: -75.383
Time Zone: US/Eastern Elev: 1915 ft

Show me the last for .
Show Decoded

2017-08-21 06:53 METAR KMPO 211053Z AUTO 29004KT 10SM 13/13 A3026 RMK AO2 SLP241 T01330133 $ =
2017-08-21 05:53 METAR KMPO 210953Z AUTO 34003KT 10SM 13/13 A3025 RMK AO2 SLP239 T01330133 $ =
2017-08-21 04:53 METAR KMPO 210853Z AUTO 33003KT 10SM 14/14 A3024 RMK AO2 SLP235 T01390139 53003
                 $ =
2017-08-21 03:53 METAR KMPO 210753Z AUTO 00000KT 10SM 14/14 A3024 RMK AO2 SLP232 T01440144 $ =
2017-08-21 02:53 METAR KMPO 210653Z AUTO 00000KT 10SM 16/15 A3023 RMK AO2 SLP230 T01560150 $ =
2017-08-21 01:53 METAR KMPO 210553Z AUTO 28007KT 10SM 17/16 A3023 RMK AO2 SLP228 T01670156 10189
                 20144 58001 $ =
2017-08-21 00:53 METAR KMPO 210453Z AUTO 28004KT 10SM 16/16 A3024 RMK AO2 SLP234 T01610156
                 402390139 $ =
2017-08-20 23:53 METAR KMPO 210353Z AUTO 30003KT 10SM 14/14 A3024 RMK AO2 SLP234 T01440144 $ =
2017-08-20 22:53 METAR KMPO 210253Z AUTO 29003KT 10SM 14/14 A3023 RMK AO2 SLP233 T01440144 51020
                 $ =
2017-08-20 21:53 METAR KMPO 210153Z AUTO 00000KT 10SM 16/15 A3022 RMK AO2 SLP226 T01560150 $ =
2017-08-20 20:53 METAR KMPO 210053Z AUTO 00000KT 10SM 17/16 A3020 RMK AO2 SLP222 T01670161 $ =
2017-08-20 19:53 METAR KMPO 202353Z AUTO 00000KT 10SM 19/16 A3017 RMK AO2 SLP212 T01890161 10239
                 20183 53004 $ =
2017-08-20 18:53 METAR KMPO 202253Z AUTO 30005KT 10SM 22/14 A3017 RMK AO2 SLP209 T02220144 $ =
2017-08-20 17:53 METAR KMPO 202153Z AUTO 31006KT 10SM 23/14 A3016 RMK AO2 SLP206 T02330139 $ =
2017-08-20 16:53 METAR KMPO 202053Z AUTO 33008G17KT 10SM 23/14 A3016 RMK AO2 SLP205 T02280139
                 55001 $ =
2017-08-20 15:53 METAR KMPO 201953Z AUTO 31010G17KT 10SM 23/14 A3015 RMK AO2 SLP201 T02330144 $ =
2017-08-20 14:53 METAR KMPO 201853Z AUTO 29009KT 10SM 23/14 A3015 RMK AO2 SLP203 T02330139 $ =
2017-08-20 13:53 METAR KMPO 201753Z AUTO 29011G17KT 10SM 23/13 A3016 RMK AO2 SLP205 T02280128
                 10228 20150 51008 $ =
2017-08-20 12:53 METAR KMPO 201653Z AUTO 30008G15KT 10SM 22/13 A3016 RMK AO2 SLP206 T02170128 $ =
2017-08-20 11:53 METAR KMPO 201553Z AUTO 35009KT 10SM 21/13 A3015 RMK AO2 SLP201 T02110133 $ =
2017-08-20 10:53 METAR KMPO 201453Z AUTO 33008KT 10SM 19/13 A3014 RMK AO2 SLP200 T01940128 53015
                 $ =
2017-08-20 09:53 METAR KMPO 201353Z AUTO 34010G17KT 10SM 18/14 A3011 RMK AO2 SLP191 T01830139 $ =
2017-08-20 08:53 METAR KMPO 201253Z AUTO 31012G19KT 10SM 16/14 A3011 RMK AO2 SLP188 T01610144 $ =

Support USWX by starting your Amazon purchase here.